createdAt,value
2018-04-12T00:00:54.177Z,4.84
2018-04-12T00:06:44.853Z,4.31
2018-04-12T00:12:35.489Z,5.11
2018-04-12T00:18:26.163Z,5.02
2018-04-12T00:24:16.930Z,4.9
2018-04-12T00:30:07.500Z,5.25
2018-04-12T00:35:58.201Z,5.19
2018-04-12T00:41:48.871Z,8.62
2018-04-12T00:47:39.536Z,5.24
2018-04-12T00:53:30.196Z,6.57
2018-04-12T00:59:20.927Z,5.65
2018-04-12T01:05:11.576Z,9.52
2018-04-12T01:11:02.244Z,9.51
2018-04-12T01:16:52.936Z,7.91
2018-04-12T01:22:43.599Z,7.43
2018-04-12T01:28:34.321Z,7.06
2018-04-12T01:34:24.943Z,6.65
2018-04-12T01:40:15.568Z,6.84
2018-04-12T01:46:06.257Z,6.56
2018-04-12T01:51:56.922Z,6.18
2018-04-12T01:57:47.671Z,5.99
2018-04-12T02:03:38.297Z,6.32
2018-04-12T02:09:28.968Z,5.66
2018-04-12T02:15:19.696Z,5.69
2018-04-12T02:21:10.293Z,5.34
2018-04-12T02:27:01.033Z,5.88
2018-04-12T02:32:51.660Z,6.32
2018-04-12T02:38:42.360Z,5.76
2018-04-12T02:44:32.978Z,6.75
2018-04-12T02:50:23.667Z,5.72
2018-04-12T02:56:14.388Z,7.42
2018-04-12T03:02:05.078Z,5.68
2018-04-12T03:07:55.706Z,6.92
2018-04-12T03:13:46.360Z,5.62
2018-04-12T03:19:37.040Z,6.11
2018-04-12T03:25:27.700Z,6.73
2018-04-12T03:31:18.387Z,7.04
2018-04-12T03:37:09.058Z,5.94
2018-04-12T03:42:59.685Z,5.34
2018-04-12T03:48:50.469Z,6.03
2018-04-12T03:54:41.088Z,5.31
2018-04-12T04:00:31.761Z,5.9
2018-04-12T04:06:22.425Z,6.96
2018-04-12T04:12:13.089Z,5.05
2018-04-12T04:18:03.747Z,11.13
2018-04-12T04:23:54.470Z,6.55
2018-04-12T04:29:45.083Z,5.78
2018-04-12T04:35:35.857Z,7.37
2018-04-12T04:41:26.455Z,6
2018-04-12T04:47:17.145Z,6.34
2018-04-12T04:53:07.776Z,7.66
2018-04-12T04:58:58.461Z,6.09
2018-04-12T05:04:49.083Z,6.45
2018-04-12T05:10:39.784Z,7.56
2018-04-12T05:16:30.424Z,7.88
2018-04-12T05:22:21.113Z,7
2018-04-12T05:28:11.840Z,6.16
2018-04-12T05:34:02.454Z,6.6
2018-04-12T05:39:53.175Z,6.34
2018-04-12T05:45:43.843Z,6.66
2018-04-12T05:51:34.535Z,6.45
2018-04-12T05:57:25.134Z,6.75
2018-04-12T06:03:15.792Z,9.04
2018-04-12T06:09:06.516Z,7.24
2018-04-12T06:14:57.198Z,6.93
2018-04-12T06:20:47.826Z,7.3
2018-04-12T06:26:38.490Z,7.19
2018-04-12T06:32:29.181Z,10.21
2018-04-12T06:38:19.844Z,7.68
2018-04-12T06:44:10.545Z,6.56
2018-04-12T06:50:01.210Z,6.35
2018-04-12T06:55:51.875Z,6.12
2018-04-12T07:01:42.580Z,5.6
2018-04-12T07:07:33.217Z,6.8
2018-04-12T07:13:23.903Z,8.11
2018-04-12T07:19:14.590Z,10.09
2018-04-12T07:25:05.216Z,9.66
2018-04-12T07:30:55.956Z,8.89
2018-04-12T07:36:46.551Z,5.83
2018-04-12T07:42:37.191Z,5.26
2018-04-12T07:48:27.923Z,6.26
2018-04-12T07:54:18.583Z,6.26
2018-04-12T08:00:09.262Z,5.82
2018-04-12T08:05:59.956Z,6.54
2018-04-12T08:11:50.561Z,6.87
2018-04-12T08:17:41.284Z,14.94
2018-04-12T08:23:32.002Z,48.77
2018-04-12T08:29:22.589Z,24.34
2018-04-12T08:35:13.289Z,13.84
2018-04-12T08:41:03.993Z,16.36
2018-04-12T08:46:54.628Z,14.75
2018-04-12T08:52:45.290Z,13.61
2018-04-12T08:58:35.987Z,16.89
2018-04-12T09:04:26.652Z,20.31
2018-04-12T09:10:17.332Z,11.94
2018-04-12T09:16:07.980Z,15.57
2018-04-12T09:21:58.681Z,10.81
2018-04-12T09:27:49.364Z,10.61
2018-04-12T09:33:40.015Z,17.76
2018-04-12T09:39:30.749Z,14.92
2018-04-12T09:45:21.391Z,9.85
2018-04-12T09:51:12.069Z,12.18
2018-04-12T09:57:02.734Z,10.59
2018-04-12T10:02:53.410Z,7.86
2018-04-12T10:08:44.117Z,3.99
2018-04-12T10:14:34.803Z,2.2
2018-04-12T10:20:25.437Z,2.16
2018-04-12T10:26:16.142Z,2.52
2018-04-12T10:32:06.818Z,2.46
2018-04-12T10:37:57.472Z,2.96
2018-04-12T10:43:48.163Z,2.41
2018-04-12T10:49:38.888Z,2.94
2018-04-12T10:55:29.542Z,1.84
2018-04-12T11:01:20.246Z,2.34
2018-04-12T11:07:10.971Z,1.84
2018-04-12T11:13:01.690Z,3.14
2018-04-12T11:18:52.321Z,2.31
2018-04-12T11:24:42.998Z,2.11
2018-04-12T11:30:33.697Z,2.03
2018-04-12T11:36:24.402Z,2.75
2018-04-12T11:42:15.114Z,2.7
2018-04-12T11:48:05.763Z,2.59
2018-04-12T11:53:56.464Z,4.5
2018-04-12T11:59:47.169Z,2.42
2018-04-12T12:05:37.849Z,2.89
2018-04-12T12:11:28.561Z,2.91
2018-04-12T12:17:19.267Z,2.34
2018-04-12T12:23:09.939Z,2.07
2018-04-12T12:29:00.657Z,2.58
2018-04-12T12:34:51.365Z,2.27
2018-04-12T12:40:42.083Z,2.44
2018-04-12T12:46:32.728Z,2.33
2018-04-12T12:52:23.543Z,2.27
2018-04-12T12:58:14.141Z,2.36
2018-04-12T13:04:05.589Z,3.14
2018-04-12T13:09:55.568Z,2.65
2018-04-12T13:15:46.288Z,1.79
2018-04-12T13:21:36.971Z,2.33
2018-04-12T13:27:27.711Z,2.24
2018-04-12T13:33:18.387Z,2.69
2018-04-12T13:39:09.099Z,2.17
2018-04-12T13:44:59.816Z,2.73
2018-04-12T13:50:50.475Z,1.69
2018-04-12T13:56:41.214Z,1.94
2018-04-12T14:02:31.947Z,4.18
2018-04-12T14:08:22.594Z,5.42
2018-04-12T14:14:13.278Z,5.44
2018-04-12T14:20:03.956Z,2.93
2018-04-12T14:25:54.705Z,3.56
2018-04-12T14:31:45.399Z,3.79
2018-04-12T14:37:36.077Z,2.96
2018-04-12T14:43:26.862Z,3.1
2018-04-12T14:49:17.470Z,2.93
2018-04-12T14:55:08.201Z,2.73
2018-04-12T15:00:58.892Z,3.68
2018-04-12T15:06:49.646Z,2.72
2018-04-12T15:12:40.360Z,2.65
2018-04-12T15:18:30.969Z,4.14
2018-04-12T15:24:21.652Z,4.41
2018-04-12T15:30:12.382Z,4.48
2018-04-12T15:36:03.046Z,258.59
2018-04-12T15:41:53.756Z,469.94
2018-04-12T15:47:44.458Z,421.13
2018-04-12T15:53:35.166Z,112.45
2018-04-12T15:59:25.828Z,22.37
2018-04-12T16:05:16.524Z,240.88
2018-04-12T16:11:07.262Z,9.09
2018-04-12T16:16:57.922Z,13.44
2018-04-12T16:22:48.593Z,82.36
2018-04-12T16:28:39.368Z,471.26
2018-04-12T16:34:29.968Z,170.39
2018-04-12T16:40:20.598Z,9.96
2018-04-12T16:46:11.360Z,19.02
2018-04-12T16:52:02.028Z,3.91
2018-04-12T16:57:52.747Z,4.72
2018-04-12T17:03:43.438Z,3.67
2018-04-12T17:09:34.024Z,2.89
2018-04-12T17:15:24.728Z,3.06
2018-04-12T17:21:15.456Z,3.16
2018-04-12T17:27:06.034Z,3.77
2018-04-12T17:32:56.714Z,5.85
2018-04-12T17:38:47.407Z,5.33
2018-04-12T17:44:38.086Z,6.49
2018-04-12T17:50:28.721Z,5.43
2018-04-12T17:56:19.452Z,5.21
2018-04-12T18:02:10.110Z,4
2018-04-12T18:08:00.781Z,7.8
2018-04-12T18:13:51.525Z,7.48
2018-04-12T18:19:42.150Z,5.99
2018-04-12T18:25:32.767Z,8.94
2018-04-12T18:31:23.457Z,3.49
2018-04-12T18:37:14.169Z,28.42
2018-04-12T18:43:04.876Z,27.51
2018-04-12T18:48:55.496Z,16.02
2018-04-12T18:54:46.155Z,19.48
2018-04-12T19:00:36.834Z,16.66
2018-04-12T19:06:27.528Z,10.89
2018-04-12T19:12:18.241Z,24.02
2018-04-12T19:18:08.892Z,12.6
2018-04-12T19:23:59.574Z,24.78
2018-04-12T19:29:50.200Z,6.94
2018-04-12T19:35:40.874Z,9.95
2018-04-12T19:41:31.597Z,5.83
2018-04-12T19:47:22.236Z,3.56
2018-04-12T19:53:12.914Z,3.79
2018-04-12T19:59:03.683Z,10.79
2018-04-12T20:04:54.248Z,6.11
2018-04-12T20:10:44.875Z,5.99
2018-04-12T20:16:35.528Z,4.63
2018-04-12T20:22:26.217Z,5.53
2018-04-12T20:28:16.852Z,4.69
2018-04-12T20:34:07.617Z,9.93
2018-04-12T20:39:58.216Z,6.91
2018-04-12T20:45:48.890Z,3.8
2018-04-12T20:51:39.552Z,4.38
2018-04-12T20:57:30.192Z,3.52
2018-04-12T21:03:20.848Z,3.67
2018-04-12T21:09:11.519Z,3.62
2018-04-12T21:15:02.265Z,3.69
2018-04-12T21:20:52.819Z,3.58
2018-04-12T21:26:43.463Z,3.72
2018-04-12T21:32:34.144Z,3.09
2018-04-12T21:38:24.800Z,3.33
2018-04-12T21:44:15.495Z,2.61
2018-04-12T21:50:06.164Z,2.7
2018-04-12T21:55:56.774Z,2.84
2018-04-12T22:01:47.497Z,2.79
2018-04-12T22:07:38.154Z,2.64
2018-04-12T22:13:28.748Z,2.84
2018-04-12T22:19:19.440Z,2.89
2018-04-12T22:25:10.060Z,2.43
2018-04-12T22:31:00.739Z,3.44
2018-04-12T22:36:51.455Z,4.44
2018-04-12T22:42:42.091Z,3.67
2018-04-12T22:48:32.777Z,3.84
2018-04-12T22:54:23.381Z,3.3
2018-04-12T23:00:14.050Z,3.42
2018-04-12T23:06:04.769Z,4
2018-04-12T23:11:55.398Z,3.71
2018-04-12T23:17:46.051Z,4.15
2018-04-12T23:23:36.736Z,4.32
2018-04-12T23:29:27.401Z,4.75
2018-04-12T23:35:18.006Z,4.36
2018-04-12T23:41:08.748Z,3.87
2018-04-12T23:46:59.381Z,3.51
2018-04-12T23:52:50.009Z,3.67
2018-04-12T23:58:40.706Z,3.99
